Time;durP1;ratioP1;P1;durP2;ratioP2;P2;SDS_P1;SDS_P2;PMS_P1;PMS_P2;Temp;Humidity;BMP_temperature;BMP_pressure;BME280_temperature;BME280_humidity;BME280_pressure;Samples;Min_cycle;Max_cycle;Signal;HPM_P1;HPM_P2
2022/01/21 00:01:29;;;;;;;35.43;13.72;;;;;;;-3.65;83.98;100421.03;1381283;91;21947;-81
2022/01/21 00:03:57;;;;;;;26.97;12.37;;;;;;;-3.65;83.90;100417.14;1396038;91;21451;-82
2022/01/21 00:06:24;;;;;;;28.60;13.55;;;;;;;-3.66;83.90;100421.91;1416929;92;21876;-82
2022/01/21 00:08:52;;;;;;;30.32;13.83;;;;;;;-3.64;83.98;100412.81;1397407;91;22377;-81
2022/01/21 00:11:22;;;;;;;24.60;12.10;;;;;;;-3.68;83.22;100419.84;1398994;91;21407;-82
2022/01/21 00:13:50;;;;;;;29.48;15.32;;;;;;;-3.72;82.94;100420.84;1390613;91;22398;-80
2022/01/21 00:16:21;;;;;;;32.50;16.57;;;;;;;-3.79;81.87;100423.28;1399051;91;21496;-82
2022/01/21 00:19:07;;;;;;;28.95;14.65;;;;;;;-3.85;81.88;100428.69;1382256;91;22428;-82
2022/01/21 00:32:47;;;;;;;30.02;14.50;;;;;;;-4.25;80.77;100435.28;1396879;93;21519;-81
2022/01/21 00:35:17;;;;;;;29.48;14.68;;;;;;;-4.34;80.87;100442.06;1386486;93;21579;-81
2022/01/21 00:37:45;;;;;;;33.95;15.55;;;;;;;-4.40;81.07;100444.41;1391326;93;21416;-82
2022/01/21 00:40:19;;;;;;;30.32;14.53;;;;;;;-4.42;81.35;100448.77;1394950;93;21745;-80
2022/01/21 00:43:04;;;;;;;24.00;10.58;;;;;;;-4.40;81.90;100446.13;1391803;93;21675;-79
2022/01/21 00:45:17;;;;;;;23.27;12.25;;;;;;;-4.41;81.99;100443.98;1380902;93;21601;-80
2022/01/21 00:47:45;;;;;;;19.20;10.10;;;;;;;-4.41;82.17;100447.03;1389875;93;21460;-80
2022/01/21 00:50:15;;;;;;;15.75;8.40;;;;;;;-4.43;82.29;100448.81;1391801;93;21482;-80
2022/01/21 00:52:42;;;;;;;17.20;9.13;;;;;;;-4.44;82.67;100448.43;1395483;93;21542;-80
2022/01/21 00:55:11;;;;;;;18.55;9.28;;;;;;;-4.45;82.87;100437.25;1394107;93;21506;-80
2022/01/21 00:57:38;;;;;;;23.52;9.55;;;;;;;-4.42;82.97;100441.48;1389202;92;21636;-82
2022/01/21 01:00:10;;;;;;;14.83;7.60;;;;;;;-4.38;83.20;100439.17;1387737;93;21444;-80
2022/01/21 01:02:38;;;;;;;21.68;8.43;;;;;;;-4.35;83.18;100432.61;1410517;90;22631;-81
2022/01/21 01:05:08;;;;;;;17.05;8.38;;;;;;;-4.32;83.41;100426.87;1398412;91;21628;-81
2022/01/21 01:07:35;;;;;;;20.37;8.65;;;;;;;-4.30;83.49;100430.71;1398697;93;21876;-81
2022/01/21 01:10:06;;;;;;;16.90;7.75;;;;;;;-4.27;83.52;100425.44;1393905;93;22536;-80
2022/01/21 01:12:49;;;;;;;15.95;7.47;;;;;;;-4.26;83.51;100421.94;1385999;93;21485;-80
2022/01/21 01:20:36;;;;;;;17.40;7.33;;;;;;;-4.21;83.27;100418.75;1390872;92;21701;-80
2022/01/21 01:28:22;;;;;;;11.35;5.72;;;;;;;-4.17;82.98;100429.39;1331412;97;22298;-80
2022/01/21 01:30:49;;;;;;;16.57;6.62;;;;;;;-4.12;83.21;100421.00;1360110;93;21692;-80
2022/01/21 01:33:22;;;;;;;16.25;6.10;;;;;;;-4.11;82.95;100417.55;1400637;92;21493;-81
2022/01/21 01:35:45;;;;;;;13.35;5.80;;;;;;;-4.08;82.79;100419.17;1400858;91;21662;-80
2022/01/21 01:41:04;;;;;;;16.52;6.22;;;;;;;-4.09;82.40;100419.59;1387045;93;21755;-81
2022/01/21 01:51:30;;;;;;;20.92;8.95;;;;;;;-4.33;81.61;100421.78;1383427;93;21481;-81
2022/01/21 01:54:05;;;;;;;16.82;8.48;;;;;;;-4.37;81.82;100422.80;1396337;92;21471;-81
2022/01/21 01:56:38;;;;;;;15.28;7.87;;;;;;;-4.42;81.70;100416.94;1393680;93;22623;-82
2022/01/21 01:59:05;;;;;;;11.88;6.70;;;;;;;-4.49;81.31;100415.44;1397992;92;21611;-81
2022/01/21 02:01:32;;;;;;;10.63;5.75;;;;;;;-4.65;80.04;100417.27;1387367;92;21412;-81
2022/01/21 02:04:00;;;;;;;12.78;5.50;;;;;;;-4.82;79.14;100412.66;1401329;91;21641;-81
2022/01/21 02:06:27;;;;;;;11.33;5.80;;;;;;;-5.02;78.07;100414.59;1417934;91;21566;-80
2022/01/21 02:08:54;;;;;;;27.40;10.72;;;;;;;-5.26;77.60;100428.28;1398791;92;22476;-81
2022/01/21 02:11:21;;;;;;;18.55;8.73;;;;;;;-5.45;78.13;100436.56;1415696;91;21448;-81
2022/01/21 02:13:56;;;;;;;14.98;7.70;;;;;;;-5.58;78.92;100436.55;1395892;93;22402;-81
2022/01/21 02:21:45;;;;;;;19.57;7.28;;;;;;;-5.73;80.10;100433.12;1415241;91;21554;-81
2022/01/21 02:24:21;;;;;;;22.48;9.33;;;;;;;-5.73;80.41;100432.66;1414634;91;22548;-80
2022/01/21 02:26:52;;;;;;;20.08;8.30;;;;;;;-5.72;80.80;100438.69;1422387;91;21522;-81
2022/01/21 02:29:28;;;;;;;;;;;;;;;-5.72;81.03;100438.69;1396829;93;21540;-82
2022/01/21 02:31:57;;;;;;;33.90;15.08;;;;;;;-5.72;81.25;100444.69;1375672;94;20422;-80
2022/01/21 02:34:25;;;;;;;44.30;18.60;;;;;;;-5.74;81.33;100446.91;1401988;93;21475;-80
2022/01/21 02:36:52;;;;;;;45.90;18.82;;;;;;;-5.74;81.41;100450.77;1381991;92;21466;-80
2022/01/21 02:39:20;;;;;;;31.10;13.48;;;;;;;-5.72;81.48;100448.55;1362546;94;21667;-81
2022/01/21 02:41:47;;;;;;;22.15;9.80;;;;;;;-5.72;81.25;100448.55;1370538;94;21533;-81
2022/01/21 02:44:17;;;;;;;25.32;12.18;;;;;;;-5.72;80.80;100450.30;1390086;93;21500;-81
2022/01/21 02:46:47;;;;;;;31.40;13.28;;;;;;;-5.78;80.27;100453.89;1376990;93;21515;-81
2022/01/21 02:49:14;;;;;;;19.37;9.45;;;;;;;-5.84;80.11;100450.63;1423774;90;22558;-81
2022/01/21 02:51:42;;;;;;;16.67;8.50;;;;;;;-5.92;80.01;100456.02;1406674;91;21603;-81
2022/01/21 02:54:09;;;;;;;14.95;6.65;;;;;;;-5.96;79.96;100460.41;1393530;93;21397;-82
2022/01/21 02:56:39;;;;;;;21.65;8.25;;;;;;;-6.02;79.97;100452.86;1393197;93;21531;-82
2022/01/21 02:59:09;;;;;;;14.00;6.72;;;;;;;-6.08;79.62;100455.61;1391239;93;22642;-82
2022/01/21 03:01:40;;;;;;;16.27;6.70;;;;;;;-6.14;79.60;100459.19;1381550;93;21470;-81
2022/01/21 03:04:10;;;;;;;18.75;7.20;;;;;;;-6.18;79.78;100458.89;1386045;93;21599;-81
2022/01/21 03:06:38;;;;;;;16.42;9.18;;;;;;;-6.23;79.75;100459.45;1392576;93;21459;-81
2022/01/21 03:09:08;;;;;;;18.35;7.87;;;;;;;-6.27;80.07;100458.27;1393454;93;21533;-81
2022/01/21 03:11:35;;;;;;;16.52;7.65;;;;;;;-6.29;80.44;100454.91;1388267;93;21506;-81
2022/01/21 03:14:03;;;;;;;19.52;8.13;;;;;;;-6.29;80.78;100457.48;1357653;93;21560;-83
2022/01/21 03:16:31;;;;;;;60.95;26.37;;;;;;;-6.25;81.07;100453.92;1399071;93;22395;-83
2022/01/21 03:18:58;;;;;;;37.35;17.32;;;;;;;-6.28;80.93;100450.98;1395688;93;21552;-82
2022/01/21 03:21:25;;;;;;;29.50;14.00;;;;;;;-6.29;81.09;100448.47;1395046;92;21568;-83
2022/01/21 03:23:55;;;;;;;21.20;10.93;;;;;;;-6.26;81.35;100448.38;1352562;94;21500;-83
2022/01/21 03:26:25;;;;;;;31.05;14.18;;;;;;;-6.22;81.62;100444.37;1369077;93;21472;-82
2022/01/21 03:28:57;;;;;;;39.33;16.05;;;;;;;-6.17;81.55;100441.69;1379896;93;21633;-83
2022/01/21 03:31:25;;;;;;;55.30;23.10;;;;;;;-6.11;81.33;100449.70;1367057;93;21460;-82
2022/01/21 03:33:52;;;;;;;40.28;15.88;;;;;;;-6.15;80.95;100442.05;1371686;95;21501;-82
2022/01/21 03:36:19;;;;;;;25.68;11.25;;;;;;;-6.11;81.16;100441.52;1366866;93;21545;-81
2022/01/21 03:38:47;;;;;;;32.63;13.48;;;;;;;-6.08;81.21;100447.88;1377854;93;21643;-81
2022/01/21 03:41:14;;;;;;;40.75;16.32;;;;;;;-6.03;81.30;100449.89;1361356;93;22382;-81
2022/01/21 03:43:41;;;;;;;26.60;11.35;;;;;;;-6.00;81.34;100449.80;1369902;93;21480;-81
2022/01/21 03:46:08;;;;;;;19.82;9.08;;;;;;;-5.95;81.42;100458.27;1358335;93;22323;-81
2022/01/21 03:48:36;;;;;;;19.90;9.30;;;;;;;-5.91;81.30;100448.67;1385928;93;22141;-81
2022/01/21 03:51:03;;;;;;;16.77;7.33;;;;;;;-5.90;81.00;100453.80;1368980;93;22021;-79
2022/01/21 03:53:31;;;;;;;19.70;6.60;;;;;;;-5.94;80.53;100453.94;1384343;93;22565;-81
2022/01/21 03:55:58;;;;;;;15.88;6.90;;;;;;;-6.00;80.42;100452.38;1371924;94;22500;-81
2022/01/21 03:58:25;;;;;;;40.12;15.53;;;;;;;-6.01;80.60;100451.99;1380954;93;21450;-81
2022/01/21 04:00:55;;;;;;;48.15;16.50;;;;;;;-6.02;80.87;100458.45;1383372;93;21473;-80
2022/01/21 04:03:25;;;;;;;110.00;34.30;;;;;;;-6.02;80.97;100470.89;1378453;94;21605;-80
2022/01/21 04:05:52;;;;;;;117.70;35.45;;;;;;;-6.01;81.35;100467.45;1366393;93;21650;-80
2022/01/21 04:08:20;;;;;;;104.58;36.58;;;;;;;-5.99;81.49;100466.11;1370529;93;21500;-81
2022/01/21 04:10:48;;;;;;;91.57;34.78;;;;;;;-5.95;81.49;100462.12;1373842;93;21590;-80
2022/01/21 04:13:19;;;;;;;109.27;38.02;;;;;;;-5.88;81.54;100466.63;1373945;93;21554;-80
2022/01/21 04:15:50;;;;;;;115.85;41.85;;;;;;;-5.84;81.57;100464.37;1381184;94;21480;-80
2022/01/21 04:18:19;;;;;;;81.85;29.52;;;;;;;-5.90;80.78;100466.69;1382096;93;21464;-79
2022/01/21 04:20:48;;;;;;;81.15;27.45;;;;;;;-5.96;80.19;100465.57;1372744;93;21587;-79
2022/01/21 04:23:17;;;;;;;62.70;22.50;;;;;;;-6.03;79.77;100464.52;1376407;93;21450;-79
2022/01/21 04:25:45;;;;;;;66.70;23.85;;;;;;;-6.05;79.89;100466.28;1376067;94;22378;-79
2022/01/21 04:28:12;;;;;;;67.97;25.57;;;;;;;-6.14;79.58;100465.63;1383467;94;21583;-79
2022/01/21 04:30:40;;;;;;;56.83;21.73;;;;;;;-6.17;79.58;100476.47;1376104;94;21709;-78
2022/01/21 04:33:07;;;;;;;55.15;20.25;;;;;;;-6.24;79.64;100472.35;1376194;93;21465;-78
2022/01/21 04:35:35;;;;;;;60.03;22.10;;;;;;;-6.25;79.90;100478.40;1373779;94;21597;-81
2022/01/21 04:38:06;;;;;;;41.98;16.50;;;;;;;-6.27;79.90;100474.59;1377618;94;21648;-81
2022/01/21 04:40:53;;;;;;;44.80;15.40;;;;;;;-6.38;78.88;100481.30;1366364;93;21724;-78
2022/01/21 04:49:08;;;;;;;44.23;17.00;;;;;;;-6.64;78.92;100484.53;1377234;93;21495;-79
2022/01/21 04:51:41;;;;;;;24.57;9.55;;;;;;;-6.68;79.09;100489.78;1369293;93;21427;-79
2022/01/21 04:54:04;;;;;;;29.60;9.58;;;;;;;-6.69;79.27;100495.38;1412854;91;21455;-79
2022/01/21 04:56:32;;;;;;;22.58;9.18;;;;;;;-6.70;79.32;100492.41;1418561;91;21615;-78
2022/01/21 04:58:59;;;;;;;17.82;7.58;;;;;;;-6.74;79.13;100493.80;1430729;91;22336;-79
2022/01/21 05:01:26;;;;;;;24.02;9.13;;;;;;;-6.77;79.30;100491.30;1429050;91;21382;-78
2022/01/21 05:03:53;;;;;;;65.22;26.23;;;;;;;-6.76;79.60;100490.41;1394165;93;21390;-78
2022/01/21 05:06:20;;;;;;;42.78;17.73;;;;;;;-6.75;79.75;100491.67;1390196;93;21400;-78
2022/01/21 05:08:53;;;;;;;36.50;13.98;;;;;;;-6.74;79.99;100490.77;1383996;93;22271;-79
2022/01/21 05:13:54;;;;;;;58.87;16.40;;;;;;;-6.73;80.33;100491.61;1411456;91;21635;-78
2022/01/21 05:19:13;;;;;;;24.98;9.15;;;;;;;-6.62;80.56;100498.64;1400999;92;21400;-81
2022/01/21 05:21:36;;;;;;;21.30;8.70;;;;;;;-6.58;80.75;100504.14;1401152;91;21441;-78
2022/01/21 05:24:04;;;;;;;28.62;12.85;;;;;;;-6.54;80.86;100508.77;1396022;93;22374;-79
2022/01/21 05:26:37;;;;;;;53.73;16.95;;;;;;;-6.52;80.82;100505.27;1388292;93;21606;-79
2022/01/21 05:29:01;;;;;;;48.70;18.87;;;;;;;-6.50;80.64;100507.38;1394232;93;21571;-79
2022/01/21 05:31:28;;;;;;;70.05;29.30;;;;;;;-6.48;80.73;100515.05;1398496;93;21465;-80
2022/01/21 05:33:55;;;;;;;44.63;18.02;;;;;;;-6.45;80.92;100525.27;1387341;94;21421;-79
2022/01/21 05:36:22;;;;;;;23.87;10.55;;;;;;;-6.44;80.86;100525.24;1384983;93;21435;-80
2022/01/21 05:38:50;;;;;;;27.10;12.13;;;;;;;-6.47;80.55;100525.32;1380635;93;22359;-80
2022/01/21 05:41:19;;;;;;;24.95;10.20;;;;;;;-6.43;80.61;100532.08;1382928;93;21561;-80
2022/01/21 05:43:47;;;;;;;173.85;64.15;;;;;;;-6.39;80.65;100523.41;1387808;93;22069;-80
2022/01/21 05:46:28;;;;;;;101.05;39.03;;;;;;;-6.38;80.33;100523.80;1373967;94;22381;-79
2022/01/21 05:48:52;;;;;;;101.33;39.92;;;;;;;-6.44;80.05;100526.53;1375729;94;21496;-78
2022/01/21 05:51:20;;;;;;;39.55;16.45;;;;;;;-6.49;80.21;100535.25;1356566;93;22390;-79
2022/01/21 05:53:47;;;;;;;29.40;13.68;;;;;;;-6.55;80.21;100535.41;1371209;94;21414;-79
2022/01/21 05:56:14;;;;;;;16.85;8.83;;;;;;;-6.54;80.38;100545.65;1368828;94;22374;-79
2022/01/21 05:58:42;;;;;;;19.35;9.83;;;;;;;-6.53;80.56;100551.64;1375733;94;21568;-79
2022/01/21 06:01:09;;;;;;;36.90;14.50;;;;;;;-6.57;80.52;100556.02;1375397;94;21458;-79
2022/01/21 06:03:36;;;;;;;23.87;9.83;;;;;;;-6.59;80.61;100554.79;1367227;94;21648;-78
2022/01/21 06:06:04;;;;;;;22.32;8.15;;;;;;;-6.60;80.93;100549.21;1370026;93;23569;-78
2022/01/21 06:08:31;;;;;;;22.75;8.38;;;;;;;-6.59;81.20;100550.05;1378323;93;21672;-79
2022/01/21 06:14:51;;;;;;;26.65;6.92;;;;;;;-6.52;81.64;100543.05;1280634;98;21710;-79
2022/01/21 06:17:19;;;;;;;24.72;8.68;;;;;;;-6.44;81.55;100550.16;1347237;96;21639;-80
2022/01/21 06:19:46;;;;;;;22.20;7.45;;;;;;;-6.40;81.48;100547.45;1368561;95;23477;-79
2022/01/21 06:22:15;;;;;;;24.80;10.03;;;;;;;-6.35;81.44;100555.08;1375088;95;21517;-79
2022/01/21 06:24:53;;;;;;;55.75;26.27;;;;;;;-6.29;81.31;100560.08;1369729;95;22040;-79
2022/01/21 06:27:26;;;;;;;73.72;37.05;;;;;;;-6.22;81.31;100562.05;1373753;93;21568;-79
2022/01/21 06:29:49;;;;;;;51.20;26.07;;;;;;;-6.16;81.35;100570.91;1396978;92;21880;-79
2022/01/21 06:32:16;;;;;;;50.48;26.23;;;;;;;-6.14;81.31;100569.14;1391489;92;21459;-79
2022/01/21 06:34:43;;;;;;;47.62;22.85;;;;;;;-6.09;81.24;100563.89;1393749;93;22376;-79
2022/01/21 06:37:10;;;;;;;31.82;15.48;;;;;;;-6.04;81.10;100572.32;1396531;92;21619;-79
2022/01/21 06:39:37;;;;;;;38.98;13.40;;;;;;;-5.95;81.11;100580.69;1388088;93;22522;-79
2022/01/21 06:42:16;;;;;;;27.65;11.73;;;;;;;-5.84;81.36;100591.98;1392086;93;21451;-79
2022/01/21 06:44:44;;;;;;;25.48;11.45;;;;;;;-5.76;81.29;100589.18;1374356;91;21563;-79
2022/01/21 06:47:11;;;;;;;28.50;11.22;;;;;;;-5.65;81.21;100596.19;1394999;93;21608;-79
2022/01/21 06:49:38;;;;;;;28.65;12.43;;;;;;;-5.54;81.03;100598.04;1395545;93;21429;-79
2022/01/21 06:52:06;;;;;;;40.50;14.38;;;;;;;-5.46;80.80;100598.69;1395474;93;22758;-79
2022/01/21 06:54:33;;;;;;;46.37;15.78;;;;;;;-5.41;80.35;100602.41;1394628;93;22611;-79
2022/01/21 06:57:01;;;;;;;33.83;14.70;;;;;;;-5.38;80.00;100611.80;1384450;93;21414;-79
2022/01/21 06:59:28;;;;;;;47.15;19.37;;;;;;;-5.36;79.71;100613.91;1392974;93;21444;-79
2022/01/21 07:01:55;;;;;;;62.33;27.37;;;;;;;-5.33;79.71;100624.13;1395944;93;21547;-79
2022/01/21 07:04:22;;;;;;;66.92;26.52;;;;;;;-5.28;79.87;100625.70;1388788;92;21747;-79
2022/01/21 07:06:49;;;;;;;50.30;21.40;;;;;;;-5.22;79.89;100631.98;1398129;93;21527;-80
2022/01/21 07:09:17;;;;;;;47.30;18.70;;;;;;;-5.14;79.93;100634.80;1389954;94;21452;-80
2022/01/21 07:11:44;;;;;;;39.65;16.37;;;;;;;-5.05;79.89;100637.12;1395960;92;22785;-80
2022/01/21 07:14:11;;;;;;;53.73;20.15;;;;;;;-5.03;79.54;100641.34;1396403;93;22479;-79
2022/01/21 07:16:38;;;;;;;51.65;19.95;;;;;;;-5.04;79.24;100640.09;1383677;93;21392;-79
2022/01/21 07:19:05;;;;;;;43.78;16.93;;;;;;;-5.04;79.21;100633.64;1395056;93;22955;-80
2022/01/21 07:21:35;;;;;;;53.30;22.45;;;;;;;-5.04;79.01;100640.93;1396847;92;21356;-80
2022/01/21 07:24:02;;;;;;;51.37;24.40;;;;;;;-5.06;78.70;100638.86;1388797;93;21558;-79
2022/01/21 07:26:29;;;;;;;72.82;31.12;;;;;;;-5.03;78.84;100652.97;1384047;93;21341;-80
2022/01/21 07:28:56;;;;;;;98.17;38.90;;;;;;;-5.00;78.72;100652.88;1353844;93;21369;-79
2022/01/21 07:31:25;;;;;;;75.15;32.48;;;;;;;-4.99;78.74;100658.43;1381018;93;21312;-80
2022/01/21 07:33:52;;;;;;;75.87;30.35;;;;;;;-4.88;78.93;100663.30;1388001;92;21601;-80
2022/01/21 07:36:19;;;;;;;74.60;31.52;;;;;;;-4.68;79.38;100670.47;1387496;93;22265;-79
2022/01/21 07:38:47;;;;;;;86.37;36.08;;;;;;;-4.52;79.17;100670.84;1367718;92;21406;-81
2022/01/21 07:41:15;;;;;;;70.03;32.53;;;;;;;-4.42;78.91;100668.84;1366342;92;22506;-81
2022/01/21 07:43:45;;;;;;;90.17;37.28;;;;;;;-4.33;78.92;100668.55;1378124;92;22003;-81
2022/01/21 07:46:12;;;;;;;92.30;39.48;;;;;;;-4.28;78.63;100666.69;1389310;93;21670;-81
2022/01/21 07:48:39;;;;;;;91.92;37.75;;;;;;;-4.16;78.99;100668.03;1348809;93;21347;-81
2022/01/21 07:51:07;;;;;;;88.07;36.50;;;;;;;-4.02;79.09;100671.02;1378214;92;22383;-81
2022/01/21 07:53:34;;;;;;;74.60;35.13;;;;;;;-3.86;79.02;100671.36;1385079;93;21332;-80
2022/01/21 07:56:02;;;;;;;87.15;34.58;;;;;;;-3.67;79.12;100673.74;1396431;92;22442;-79
2022/01/21 07:58:30;;;;;;;76.02;33.15;;;;;;;-3.47;78.79;100678.25;1408744;93;21421;-79
2022/01/21 08:00:57;;;;;;;70.25;31.95;;;;;;;-3.34;78.38;100681.25;1361333;93;22145;-79
2022/01/21 08:03:25;;;;;;;72.60;34.90;;;;;;;-3.21;78.35;100684.27;1354924;92;21371;-79
2022/01/21 08:05:52;;;;;;;74.03;32.40;;;;;;;-3.08;78.40;100679.48;1379787;93;22368;-80
2022/01/21 08:08:19;;;;;;;66.82;30.23;;;;;;;-2.96;78.42;100688.97;1392039;92;21406;-79
2022/01/21 08:10:46;;;;;;;86.28;32.98;;;;;;;-2.82;78.57;100686.31;1342884;93;21517;-79
2022/01/21 08:13:13;;;;;;;66.80;31.35;;;;;;;-2.68;78.37;100684.52;1391657;92;22887;-79
2022/01/21 08:15:41;;;;;;;70.17;30.50;;;;;;;-2.53;78.77;100695.16;1392215;93;21421;-79
2022/01/21 08:20:44;;;;;;;56.10;28.10;;;;;;;-2.31;78.05;100688.69;1386955;92;21466;-77
2022/01/21 08:23:12;;;;;;;64.27;29.40;;;;;;;-2.20;77.60;100691.33;1395779;92;21480;-78
2022/01/21 08:25:41;;;;;;;52.90;25.75;;;;;;;-2.12;75.77;100694.02;1326996;94;21415;-78
2022/01/21 08:28:08;;;;;;;61.13;26.27;;;;;;;-2.02;76.94;100691.89;1395290;92;21649;-79
2022/01/21 08:30:36;;;;;;;53.98;23.00;;;;;;;-1.91;75.22;100699.25;1381281;93;21472;-79
2022/01/21 08:33:05;;;;;;;53.25;24.50;;;;;;;-1.96;75.19;100702.48;1379499;93;21464;-79
2022/01/21 08:35:33;;;;;;;41.95;19.35;;;;;;;-1.82;75.87;100702.30;1317343;92;22456;-79
2022/01/21 08:38:00;;;;;;;46.48;19.48;;;;;;;-1.66;76.19;100693.92;1332017;92;21342;-77
2022/01/21 08:40:28;;;;;;;53.65;22.62;;;;;;;-1.64;74.31;100698.14;1340993;92;21670;-76
2022/01/21 08:42:55;;;;;;;35.25;15.88;;;;;;;-1.55;73.96;100704.70;1341100;92;21452;-77
2022/01/21 08:45:22;;;;;;;37.50;16.10;;;;;;;-1.51;73.42;100705.41;1328103;93;21398;-77
2022/01/21 08:47:51;;;;;;;47.98;16.97;;;;;;;-1.40;72.90;100709.24;1345443;92;22272;-77
2022/01/21 08:50:20;;;;;;;45.05;22.75;;;;;;;-1.45;71.87;100711.18;1381959;93;21385;-79
2022/01/21 08:52:48;;;;;;;39.88;18.10;;;;;;;-1.34;73.15;100715.09;1402786;90;22201;-81
2022/01/21 08:55:19;;;;;;;39.60;18.92;;;;;;;-1.29;72.16;100716.59;1398950;91;21434;-80
2022/01/21 08:57:48;;;;;;;57.67;28.27;;;;;;;-1.31;71.29;100718.39;1404758;90;21538;-80
2022/01/21 09:00:21;;;;;;;33.65;17.12;;;;;;;-1.36;71.54;100725.07;1376410;93;21361;-80
2022/01/21 09:02:51;;;;;;;235.57;85.80;;;;;;;-1.50;71.38;100723.50;1381225;93;21427;-80
2022/01/21 09:05:17;;;;;;;638.03;257.32;;;;;;;-1.43;72.59;100724.95;1341708;91;22284;-80
2022/01/21 09:07:44;;;;;;;542.60;207.32;;;;;;;-1.27;72.67;100732.09;1375832;93;21409;-80
2022/01/21 09:10:12;;;;;;;156.85;54.10;;;;;;;-1.28;72.34;100732.55;1370789;92;22857;-80
2022/01/21 09:12:39;;;;;;;202.00;65.37;;;;;;;-1.33;72.08;100733.65;1359559;94;21369;-80
2022/01/21 09:15:08;;;;;;;325.77;107.73;;;;;;;-1.32;71.59;100734.03;1403691;92;21962;-77
2022/01/21 09:17:36;;;;;;;40.23;15.43;;;;;;;-1.13;72.15;100733.65;1370709;94;23523;-77
2022/01/21 09:20:05;;;;;;;208.10;71.30;;;;;;;-1.00;70.64;100735.28;1374580;93;22470;-77
2022/01/21 09:22:33;;;;;;;173.43;70.53;;;;;;;-0.75;71.52;100734.59;1391600;93;22871;-77
2022/01/21 09:25:00;;;;;;;48.17;16.80;;;;;;;-0.40;71.99;100740.39;1390118;94;21724;-77
2022/01/21 09:27:27;;;;;;;115.13;43.67;;;;;;;-0.18;68.75;100741.10;1394580;94;22962;-77
2022/01/21 09:29:54;;;;;;;32.67;15.07;;;;;;;0.08;69.88;100741.64;1391128;93;21539;-77
2022/01/21 09:32:21;;;;;;;93.03;32.73;;;;;;;0.25;64.70;100735.63;1426447;93;21495;-78
2022/01/21 09:34:48;;;;;;;27.93;12.03;;;;;;;0.54;68.90;100728.98;1383576;93;21500;-78
2022/01/21 09:37:15;;;;;;;14.77;6.17;;;;;;;0.70;64.37;100731.69;1375524;92;22952;-78
2022/01/21 09:39:43;;;;;;;22.20;9.20;;;;;;;0.53;61.72;100724.71;1347909;93;21745;-78
2022/01/21 09:42:13;;;;;;;35.00;13.97;;;;;;;0.52;63.87;100723.00;1362832;91;23069;-79
2022/01/21 09:44:41;;;;;;;12.58;4.55;;;;;;;0.58;64.46;100713.61;1397571;91;23108;-79
2022/01/21 09:47:11;;;;;;;24.20;10.30;;;;;;;0.45;60.98;100714.66;1362602;93;21539;-79
2022/01/21 09:49:41;;;;;;;17.97;7.67;;;;;;;1.69;58.98;100722.53;1401701;93;21757;-79
2022/01/21 09:52:11;;;;;;;11.90;4.57;;;;;;;1.69;58.98;100722.53;1369058;93;22107;-80
2022/01/21 09:54:48;;;;;;;11.43;5.65;;;;;;;2.12;55.75;100714.94;1404707;91;22139;-78
2022/01/21 09:57:22;;;;;;;11.83;4.10;;;;;;;2.98;56.23;100707.34;1402739;91;21442;-80
2022/01/21 09:59:52;;;;;;;8.27;3.73;;;;;;;3.62;53.37;100707.77;1392103;90;22439;-79
2022/01/21 10:02:25;;;;;;;9.78;5.20;;;;;;;4.06;47.84;100702.81;1377221;92;21354;-80
2022/01/21 10:04:53;;;;;;;6.70;3.57;;;;;;;4.22;46.04;100702.64;1394962;90;21412;-79
2022/01/21 10:07:22;;;;;;;13.63;7.17;;;;;;;4.26;44.86;100705.45;1412696;90;21622;-80
2022/01/21 10:09:53;;;;;;;8.13;3.97;;;;;;;4.65;45.06;100702.43;1418402;91;21361;-80
2022/01/21 10:12:20;;;;;;;8.80;4.55;;;;;;;5.19;47.13;100703.55;1382315;93;22204;-80
2022/01/21 10:14:48;;;;;;;7.43;3.77;;;;;;;5.20;46.95;100702.59;1387698;93;21356;-79
2022/01/21 10:17:15;;;;;;;11.77;4.67;;;;;;;5.08;41.80;100698.20;1435931;93;21414;-80
2022/01/21 10:19:45;;;;;;;8.23;4.50;;;;;;;5.09;42.67;100702.50;1416959;93;21383;-81
2022/01/21 10:22:18;;;;;;;10.80;5.13;;;;;;;5.52;46.22;100702.13;1380037;93;21445;-80
2022/01/21 10:25:12;;;;;;;8.13;4.53;;;;;;;5.57;42.97;100702.66;1381397;94;21924;-80
2022/01/21 10:27:38;;;;;;;6.37;3.90;;;;;;;5.79;45.79;100709.38;1346557;96;21552;-80
2022/01/21 10:30:25;;;;;;;10.30;4.50;;;;;;;5.79;39.52;100705.43;1370674;94;21776;-81
2022/01/21 10:32:54;;;;;;;10.20;4.00;;;;;;;5.69;39.77;100703.08;1363923;94;22440;-80
2022/01/21 10:35:35;;;;;;;8.20;4.97;;;;;;;5.77;40.71;100688.10;1369013;93;22190;-80
2022/01/21 10:38:23;;;;;;;46.98;26.35;;;;;;;5.52;40.05;100691.16;1370622;94;21652;-81
2022/01/21 10:40:51;;;;;;;26.83;14.97;;;;;;;5.82;45.66;100689.45;1375343;95;21614;-81
2022/01/21 10:43:19;;;;;;;8.40;5.50;;;;;;;5.72;41.86;100686.27;1366652;95;21631;-81
2022/01/21 10:45:57;;;;;;;13.10;5.07;;;;;;;5.77;43.85;100681.05;1365028;94;22576;-80
2022/01/21 10:48:31;;;;;;;6.53;3.77;;;;;;;5.95;38.22;100686.80;1354442;94;21600;-83
2022/01/21 10:51:24;;;;;;;6.87;3.50;;;;;;;6.16;41.78;100690.11;1356328;94;21651;-82
2022/01/21 10:53:50;;;;;;;8.67;3.93;;;;;;;6.20;42.90;100681.06;1364711;94;21600;-82
2022/01/21 10:56:20;;;;;;;6.93;3.70;;;;;;;6.55;43.03;100678.43;1362069;93;21486;-81
2022/01/21 10:58:52;;;;;;;7.53;4.20;;;;;;;6.96;38.99;100674.44;1363131;93;21657;-82
2022/01/21 11:01:28;;;;;;;11.37;6.43;;;;;;;7.34;42.25;100680.69;1363263;93;21622;-82
2022/01/21 11:04:09;;;;;;;14.43;4.67;;;;;;;7.43;41.21;100672.54;1372267;93;23877;-81
2022/01/21 11:06:54;;;;;;;8.93;4.97;;;;;;;7.55;40.97;100670.24;1357208;94;22525;-81
2022/01/21 11:09:22;;;;;;;15.17;5.90;;;;;;;7.77;40.56;100664.55;1334680;94;21604;-81
2022/01/21 11:12:09;;;;;;;11.15;6.25;;;;;;;7.54;40.06;100670.34;1332385;94;21362;-80
2022/01/21 11:15:00;;;;;;;10.63;5.23;;;;;;;6.97;39.05;100655.08;1312583;95;22377;-81
2022/01/21 11:17:28;;;;;;;8.85;5.33;;;;;;;6.74;38.97;100662.11;1335482;94;21421;-81
2022/01/21 11:20:16;;;;;;;12.67;5.33;;;;;;;6.52;40.63;100661.57;1314457;94;22193;-81
2022/01/21 11:23:00;;;;;;;12.23;5.67;;;;;;;6.42;40.27;100657.50;1315030;93;21461;-81
2022/01/21 11:25:49;;;;;;;13.30;5.07;;;;;;;6.10;42.17;100660.73;1330945;95;21588;-81
2022/01/21 11:28:45;;;;;;;13.47;5.77;;;;;;;5.48;42.22;100663.45;1317480;94;21432;-80
2022/01/21 11:31:13;;;;;;;9.47;4.70;;;;;;;4.81;42.50;100665.54;1349352;93;21327;-80
2022/01/21 11:33:40;;;;;;;9.67;4.00;;;;;;;4.10;44.33;100668.09;1349158;95;21629;-81
2022/01/21 11:36:07;;;;;;;8.07;4.20;;;;;;;3.50;44.49;100658.35;1310978;95;21332;-80
2022/01/21 11:38:38;;;;;;;12.70;5.37;;;;;;;3.13;45.48;100660.63;1322292;93;21415;-79
2022/01/21 11:41:08;;;;;;;10.17;5.10;;;;;;;2.74;47.98;100658.68;1326997;95;21386;-81
2022/01/21 11:43:38;;;;;;;13.63;4.60;;;;;;;2.59;48.25;100655.21;1316797;95;21564;-80
2022/01/21 11:49:11;;;;;;;13.57;4.63;;;;;;;2.26;49.14;100647.09;1304446;94;21506;-80
2022/01/21 11:51:40;;;;;;;11.77;5.47;;;;;;;2.17;49.42;100658.08;1367637;94;22463;-80
2022/01/21 11:54:15;;;;;;;9.97;4.20;;;;;;;2.00;49.76;100663.42;1392303;94;22041;-80
2022/01/21 11:57:04;;;;;;;12.07;5.10;;;;;;;1.79;50.02;100661.09;1317684;94;23098;-80
2022/01/21 12:02:30;;;;;;;19.80;8.53;;;;;;;1.83;51.94;100655.70;1324265;95;22109;-81
2022/01/21 12:05:10;;;;;;;11.90;5.17;;;;;;;2.39;52.28;100663.38;1307867;95;22179;-81
2022/01/21 12:07:48;;;;;;;10.13;4.73;;;;;;;2.92;51.93;100654.11;1339396;95;23070;-81
2022/01/21 12:10:26;;;;;;;9.47;3.97;;;;;;;3.49;49.76;100668.45;1345883;95;21356;-80
2022/01/21 12:13:06;;;;;;;10.23;6.20;;;;;;;3.98;50.06;100662.70;1331111;95;21373;-81
2022/01/21 12:18:53;;;;;;;11.90;4.70;;;;;;;4.69;48.98;100663.25;1338570;95;22272;-80
2022/01/21 12:21:38;;;;;;;9.33;3.93;;;;;;;4.70;46.43;100666.27;1349472;95;21398;-80
2022/01/21 12:24:08;;;;;;;6.93;3.03;;;;;;;4.57;45.68;100660.16;1348248;95;21563;-80
2022/01/21 12:26:35;;;;;;;8.60;3.00;;;;;;;4.57;44.63;100651.81;1349378;95;21459;-80
2022/01/21 12:29:14;;;;;;;5.67;2.67;;;;;;;4.70;44.51;100651.36;1361069;93;21525;-80
2022/01/21 12:32:06;;;;;;;15.63;4.87;;;;;;;4.85;43.77;100639.45;1368658;95;22531;-81